Time;durP1;ratioP1;P1;durP2;ratioP2;P2;SDS_P1;SDS_P2;PMS_P1;PMS_P2;Temp;Humidity;BMP_temperature;BMP_pressure;BME280_temperature;BME280_humidity;BME280_pressure;Samples;Min_cycle;Max_cycle;Signal;HPM_P1;HPM_P2
2022/07/09 00:01:18;;;;;;;3.23;2.07;;;;;;;12.59;100.00;101664.72;5044846;28;20211;-71
2022/07/09 00:03:44;;;;;;;2.00;1.80;;;;;;;12.56;100.00;101651.72;5047801;28;20207;-71
2022/07/09 00:06:12;;;;;;;1.67;1.57;;;;;;;12.62;100.00;101662.06;5045842;28;20199;-72
2022/07/09 00:08:38;;;;;;;2.17;1.90;;;;;;;12.63;100.00;101663.81;5043413;28;20197;-71
2022/07/09 00:11:05;;;;;;;4.73;1.87;;;;;;;12.54;100.00;101650.91;5042834;28;20227;-72
2022/07/09 00:13:31;;;;;;;2.30;1.97;;;;;;;12.58;100.00;101660.41;5029461;28;20204;-71
2022/07/09 00:15:58;;;;;;;1.97;1.80;;;;;;;12.58;100.00;101657.78;5046668;28;20199;-71
2022/07/09 00:18:24;;;;;;;5.60;2.20;;;;;;;12.61;100.00;101656.84;5044203;28;20211;-72
2022/07/09 00:20:51;;;;;;;1.87;1.67;;;;;;;12.55;100.00;101651.75;5053354;28;20235;-72
2022/07/09 00:23:19;;;;;;;3.87;1.93;;;;;;;12.57;100.00;101649.97;5049838;28;20209;-72
2022/07/09 00:25:45;;;;;;;3.50;2.20;;;;;;;12.52;100.00;101647.41;5046906;28;20199;-72
2022/07/09 00:28:11;;;;;;;1.90;1.73;;;;;;;12.62;100.00;101648.97;5046599;28;20198;-72
2022/07/09 00:30:38;;;;;;;1.90;1.80;;;;;;;12.48;100.00;101648.38;5046489;28;20239;-72
2022/07/09 00:33:04;;;;;;;1.77;1.57;;;;;;;12.38;100.00;101647.66;5044263;28;20210;-72
2022/07/09 00:35:31;;;;;;;3.37;2.37;;;;;;;12.39;100.00;101648.53;5045306;28;20228;-73
2022/07/09 00:37:58;;;;;;;2.70;2.27;;;;;;;12.33;100.00;101641.66;5048183;28;20203;-73
2022/07/09 00:40:26;;;;;;;3.50;2.00;;;;;;;12.46;100.00;101639.69;5025206;28;20221;-72
2022/07/09 00:42:52;;;;;;;2.57;2.20;;;;;;;12.42;100.00;101644.13;5044416;28;20608;-73
2022/07/09 00:45:18;;;;;;;2.30;1.90;;;;;;;12.23;100.00;101637.47;5038832;28;20205;-73
2022/07/09 00:47:45;;;;;;;2.27;2.03;;;;;;;12.29;100.00;101639.97;5049162;28;20660;-73
2022/07/09 00:50:12;;;;;;;2.07;1.87;;;;;;;12.25;100.00;101638.31;5048440;28;20223;-73
2022/07/09 00:52:39;;;;;;;1.80;1.70;;;;;;;12.28;100.00;101638.28;5046203;28;20199;-73
2022/07/09 00:55:07;;;;;;;2.67;2.00;;;;;;;12.35;100.00;101636.38;5049353;28;20210;-73
2022/07/09 00:57:35;;;;;;;2.57;2.07;;;;;;;12.42;100.00;101632.81;5040735;28;20194;-73
2022/07/09 01:00:02;;;;;;;2.13;1.87;;;;;;;12.39;100.00;101630.22;5027688;28;20267;-71
2022/07/09 01:02:29;;;;;;;2.03;1.83;;;;;;;12.36;100.00;101633.75;5037113;28;20545;-72
2022/07/09 01:04:56;;;;;;;3.23;2.57;;;;;;;12.35;100.00;101624.19;5041776;28;20194;-72
2022/07/09 01:07:22;;;;;;;2.30;2.10;;;;;;;12.28;100.00;101625.19;5044345;28;20195;-72
2022/07/09 01:09:49;;;;;;;2.17;1.93;;;;;;;12.22;100.00;101625.28;5055049;28;20310;-73
2022/07/09 01:12:15;;;;;;;2.23;2.03;;;;;;;12.17;100.00;101625.38;5045345;28;20200;-72
2022/07/09 01:14:43;;;;;;;2.13;1.80;;;;;;;12.15;100.00;101621.06;5046683;28;20287;-72
2022/07/09 01:17:09;;;;;;;3.43;1.93;;;;;;;12.21;100.00;101620.97;5044448;28;20206;-72
2022/07/09 01:19:36;;;;;;;2.23;1.77;;;;;;;12.01;100.00;101618.66;5034802;28;20324;-72
2022/07/09 01:22:04;;;;;;;3.90;2.30;;;;;;;12.07;100.00;101616.81;5045253;28;20218;-72
2022/07/09 01:24:30;;;;;;;2.33;2.10;;;;;;;12.05;100.00;101623.81;5045878;28;20200;-72
2022/07/09 01:26:57;;;;;;;2.33;2.00;;;;;;;11.99;100.00;101617.84;5048196;28;20199;-72
2022/07/09 01:29:23;;;;;;;2.17;1.80;;;;;;;11.88;100.00;101616.22;5044169;28;20219;-72
2022/07/09 01:31:50;;;;;;;5.63;1.90;;;;;;;11.90;100.00;101610.97;5052628;28;20219;-72
2022/07/09 01:34:16;;;;;;;2.57;1.87;;;;;;;11.87;100.00;101613.63;5048598;28;20603;-71
2022/07/09 01:36:44;;;;;;;4.57;2.73;;;;;;;11.84;100.00;101606.72;5050336;28;20200;-72
2022/07/09 01:39:11;;;;;;;4.93;2.40;;;;;;;11.84;100.00;101596.25;5049821;28;20572;-72
2022/07/09 01:41:38;;;;;;;2.13;1.93;;;;;;;11.75;100.00;101599.88;5047952;28;20192;-72
2022/07/09 01:44:06;;;;;;;2.53;2.10;;;;;;;11.74;100.00;101599.91;5048395;28;20288;-72
2022/07/09 01:46:33;;;;;;;2.40;2.20;;;;;;;11.79;100.00;101594.59;5048708;28;20249;-72
2022/07/09 01:48:59;;;;;;;2.30;2.10;;;;;;;11.84;100.00;101592.78;5048724;28;20198;-72
2022/07/09 01:51:26;;;;;;;2.63;2.43;;;;;;;11.90;100.00;101587.44;5045279;28;20294;-72
2022/07/09 01:53:52;;;;;;;2.47;1.90;;;;;;;11.82;100.00;101586.69;5050909;28;20213;-72
2022/07/09 01:56:20;;;;;;;2.97;2.40;;;;;;;11.81;100.00;101580.63;5041794;28;20564;-72
2022/07/09 01:58:46;;;;;;;2.50;2.30;;;;;;;11.68;100.00;101581.69;5045572;28;20668;-72
2022/07/09 02:01:13;;;;;;;2.70;2.30;;;;;;;11.74;100.00;101579.84;5048908;28;20711;-72
2022/07/09 02:03:39;;;;;;;2.77;2.30;;;;;;;11.56;100.00;101581.00;5050529;28;20648;-72
2022/07/09 02:06:06;;;;;;;3.23;2.83;;;;;;;11.56;100.00;101577.53;5046742;28;20724;-72
2022/07/09 02:08:32;;;;;;;2.60;2.30;;;;;;;11.70;100.00;101570.34;5049032;28;20219;-72
2022/07/09 02:10:58;;;;;;;2.87;2.53;;;;;;;11.59;100.00;101574.88;5061627;28;20226;-72
2022/07/09 02:13:26;;;;;;;4.70;2.50;;;;;;;11.62;100.00;101576.56;5045668;28;20210;-72
2022/07/09 02:15:53;;;;;;;3.67;2.43;;;;;;;11.61;100.00;101574.84;5049807;28;20196;-72
2022/07/09 02:18:19;;;;;;;4.10;3.00;;;;;;;11.72;100.00;101581.63;5050858;28;20202;-72
2022/07/09 02:20:46;;;;;;;3.10;2.67;;;;;;;11.68;100.00;101584.28;5038986;28;20695;-71
2022/07/09 02:23:12;;;;;;;4.27;2.73;;;;;;;11.66;100.00;101575.63;5050523;28;20194;-72
2022/07/09 02:25:39;;;;;;;2.53;2.33;;;;;;;11.67;100.00;101585.19;5025233;28;20234;-72
2022/07/09 02:28:05;;;;;;;2.60;2.20;;;;;;;11.68;100.00;101581.69;5050339;28;20226;-73
2022/07/09 02:30:34;;;;;;;4.47;2.67;;;;;;;11.66;100.00;101575.63;5046109;28;20227;-71
2022/07/09 02:33:00;;;;;;;3.37;2.67;;;;;;;11.71;100.00;101574.69;5045469;28;20292;-72
2022/07/09 02:35:27;;;;;;;3.70;2.70;;;;;;;11.68;100.00;101566.91;5044527;28;20218;-72
2022/07/09 02:37:53;;;;;;;3.17;2.70;;;;;;;11.72;100.00;101570.31;5032357;28;20210;-72
2022/07/09 02:40:19;;;;;;;2.97;2.73;;;;;;;11.73;100.00;101564.19;5049969;28;20219;-72
2022/07/09 02:42:46;;;;;;;2.90;2.50;;;;;;;11.85;100.00;101574.44;5042434;28;20195;-72
2022/07/09 02:45:12;;;;;;;5.43;3.00;;;;;;;11.74;100.00;101574.63;5046418;28;20195;-71
2022/07/09 02:47:40;;;;;;;3.07;2.77;;;;;;;11.68;100.00;101573.84;5055708;28;20198;-73
2022/07/09 02:50:07;;;;;;;4.07;2.87;;;;;;;11.65;100.00;101576.53;5053686;28;20219;-73
2022/07/09 02:52:34;;;;;;;2.43;2.23;;;;;;;11.67;100.00;101572.13;5052572;28;20226;-72
2022/07/09 02:55:01;;;;;;;4.67;2.97;;;;;;;11.68;100.00;101584.28;5054529;28;20239;-73
2022/07/09 02:57:27;;;;;;;4.70;2.97;;;;;;;11.64;100.00;101578.25;5053173;28;20193;-73
2022/07/09 02:59:53;;;;;;;4.73;3.00;;;;;;;11.63;100.00;101576.56;5054470;28;20220;-72
2022/07/09 03:02:20;;;;;;;5.03;2.43;;;;;;;11.65;100.00;101572.16;5043777;28;20191;-72
2022/07/09 03:04:47;;;;;;;4.00;3.10;;;;;;;11.63;100.00;101584.38;5054636;28;20200;-72
2022/07/09 03:07:14;;;;;;;4.63;3.20;;;;;;;11.68;100.00;101579.06;5046619;28;20198;-73
2022/07/09 03:09:41;;;;;;;3.77;3.20;;;;;;;11.71;100.00;101573.81;5044058;28;20279;-72
2022/07/09 03:12:08;;;;;;;6.87;3.30;;;;;;;11.68;100.00;101566.91;5045829;28;20216;-72
2022/07/09 03:14:34;;;;;;;3.17;2.63;;;;;;;11.69;100.00;101572.97;5045593;28;20195;-72
2022/07/09 03:17:01;;;;;;;4.63;2.40;;;;;;;11.64;100.00;101564.34;5042012;28;20679;-72
2022/07/09 03:19:27;;;;;;;3.97;3.30;;;;;;;11.66;100.00;101570.41;5044046;28;20251;-72
2022/07/09 03:21:55;;;;;;;3.90;2.70;;;;;;;11.66;100.00;101560.84;5048390;28;20684;-72
2022/07/09 03:24:21;;;;;;;7.33;3.33;;;;;;;11.67;100.00;101577.38;5045085;28;20253;-72
2022/07/09 03:26:48;;;;;;;5.30;2.87;;;;;;;11.65;100.00;101569.56;5044980;28;20191;-72
2022/07/09 03:29:14;;;;;;;5.40;2.47;;;;;;;11.61;100.00;101577.44;5050687;28;20199;-72
2022/07/09 03:31:40;;;;;;;5.43;3.20;;;;;;;11.64;100.00;101577.41;5042364;28;20228;-72
2022/07/09 03:34:07;;;;;;;4.27;2.33;;;;;;;11.67;100.00;101580.84;5047293;28;20202;-72
2022/07/09 03:36:34;;;;;;;4.60;2.40;;;;;;;11.80;100.00;101581.50;5035262;28;20204;-73
2022/07/09 03:39:02;;;;;;;3.20;2.90;;;;;;;11.80;100.00;101578.03;5050595;28;20226;-72
2022/07/09 03:41:29;;;;;;;6.73;3.07;;;;;;;11.84;100.00;101577.13;5048918;28;20192;-72
2022/07/09 03:43:55;;;;;;;3.47;2.80;;;;;;;11.89;100.00;101575.25;5050142;28;20191;-72
2022/07/09 03:46:23;;;;;;;5.07;2.93;;;;;;;12.00;100.00;101583.84;5043800;28;20201;-72
2022/07/09 03:48:50;;;;;;;3.57;3.27;;;;;;;12.09;100.00;101575.81;5040729;28;20209;-72
2022/07/09 03:51:16;;;;;;;6.97;3.50;;;;;;;12.09;100.00;101574.97;5026032;28;20222;-72
2022/07/09 03:53:43;;;;;;;3.67;3.07;;;;;;;12.04;100.00;101577.66;5043663;28;20200;-72
2022/07/09 03:56:12;;;;;;;6.77;3.00;;;;;;;12.08;100.00;101574.13;5043329;28;20195;-72
2022/07/09 03:58:38;;;;;;;3.70;2.80;;;;;;;12.06;100.00;101577.63;5046513;28;20200;-72
2022/07/09 04:01:04;;;;;;;5.30;3.23;;;;;;;12.15;100.00;101581.84;5042415;28;20212;-72
2022/07/09 04:03:31;;;;;;;6.03;3.60;;;;;;;12.14;100.00;101583.59;5036070;28;20443;-73
2022/07/09 04:05:57;;;;;;;8.30;2.70;;;;;;;12.17;100.00;101586.16;5045045;28;20426;-72
2022/07/09 04:08:24;;;;;;;6.67;2.97;;;;;;;12.25;100.00;101592.09;5042044;28;20691;-72
2022/07/09 04:10:50;;;;;;;3.53;2.80;;;;;;;12.37;100.00;101592.78;5041503;28;20213;-73
2022/07/09 04:13:18;;;;;;;4.50;3.20;;;;;;;12.39;100.00;101597.09;5049376;28;20205;-72
2022/07/09 04:15:45;;;;;;;5.53;3.40;;;;;;;12.50;100.00;101594.28;5041488;28;20193;-72
2022/07/09 04:18:12;;;;;;;3.73;2.70;;;;;;;12.59;100.00;101593.25;5028066;28;20212;-72
2022/07/09 04:20:38;;;;;;;2.93;2.57;;;;;;;12.69;100.00;101595.63;5044714;28;20242;-72
2022/07/09 04:23:04;;;;;;;7.73;3.73;;;;;;;12.82;100.00;101596.28;5047762;28;20201;-72
2022/07/09 04:25:31;;;;;;;3.70;2.80;;;;;;;12.93;100.00;101593.44;5046679;28;20199;-72
2022/07/09 04:27:58;;;;;;;8.27;3.03;;;;;;;13.03;100.00;101594.97;5037961;28;20194;-72
2022/07/09 04:30:26;;;;;;;3.30;3.00;;;;;;;13.06;100.00;101592.28;5045444;28;20219;-72
2022/07/09 04:32:53;;;;;;;7.33;3.50;;;;;;;13.12;100.00;101593.03;5048857;28;20224;-72
2022/07/09 04:35:19;;;;;;;5.53;3.43;;;;;;;13.21;100.00;101596.34;5043558;28;20204;-72
2022/07/09 04:37:45;;;;;;;4.30;3.30;;;;;;;13.30;100.00;101595.28;5041894;28;20206;-73
2022/07/09 04:40:13;;;;;;;6.03;3.53;;;;;;;13.36;100.00;101596.94;5033151;28;20236;-72
2022/07/09 04:42:39;;;;;;;4.00;3.13;;;;;;;13.40;100.00;101596.84;5040724;28;20199;-72
2022/07/09 04:45:06;;;;;;;3.73;3.17;;;;;;;13.50;100.00;101601.84;5040236;28;20279;-73
2022/07/09 04:47:34;;;;;;;7.33;3.60;;;;;;;13.53;100.00;101607.88;5044743;28;20223;-72
2022/07/09 04:50:00;;;;;;;4.40;3.20;;;;;;;13.50;100.00;101625.44;5019936;28;20346;-73
2022/07/09 04:52:28;;;;;;;7.43;3.03;;;;;;;13.49;100.00;101623.69;5036543;28;20233;-72
2022/07/09 04:54:54;;;;;;;5.07;3.37;;;;;;;13.51;100.00;101635.88;5039933;28;20213;-72
2022/07/09 04:57:21;;;;;;;3.43;2.50;;;;;;;13.33;100.00;101629.31;5044391;28;20253;-72
2022/07/09 04:59:47;;;;;;;3.40;2.60;;;;;;;13.34;100.00;101627.53;5047522;28;20219;-73
2022/07/09 05:02:14;;;;;;;8.07;2.50;;;;;;;13.29;100.00;101621.50;5039029;28;20198;-72
2022/07/09 05:04:42;;;;;;;4.97;2.30;;;;;;;13.24;100.00;101613.72;5045109;28;20792;-72
2022/07/09 05:07:08;;;;;;;2.83;2.13;;;;;;;13.41;100.00;101605.53;5041426;28;20563;-73
2022/07/09 05:09:35;;;;;;;2.13;1.93;;;;;;;13.37;100.00;101610.00;5038561;28;20211;-72
2022/07/09 05:12:01;;;;;;;3.57;2.67;;;;;;;13.42;100.00;101623.84;5038417;28;20206;-73
2022/07/09 05:14:27;;;;;;;2.50;1.97;;;;;;;13.40;100.00;101620.41;5043566;28;20206;-73
2022/07/09 05:16:54;;;;;;;8.80;1.93;;;;;;;13.51;100.00;101617.56;5048226;28;20192;-72
2022/07/09 05:19:20;;;;;;;3.33;2.30;;;;;;;13.47;100.00;101623.72;5052213;28;20203;-72
2022/07/09 05:21:48;;;;;;;3.97;2.00;;;;;;;13.53;100.00;101623.59;5041498;28;20203;-73
2022/07/09 05:24:14;;;;;;;3.13;2.27;;;;;;;13.48;100.00;101625.47;5044201;28;20199;-73
2022/07/09 05:26:41;;;;;;;2.30;1.97;;;;;;;13.42;100.00;101618.63;5043573;28;20205;-72
2022/07/09 05:29:07;;;;;;;3.53;2.17;;;;;;;13.37;100.00;101622.25;5039341;28;20202;-73
2022/07/09 05:31:33;;;;;;;3.73;2.23;;;;;;;13.36;100.00;101623.13;5037847;28;20208;-73
2022/07/09 05:34:00;;;;;;;3.20;2.23;;;;;;;13.37;100.00;101620.47;5045349;28;20223;-72
2022/07/09 05:36:28;;;;;;;5.87;2.57;;;;;;;13.39;100.00;101621.28;5039631;28;20190;-72
2022/07/09 05:38:56;;;;;;;7.00;2.20;;;;;;;13.44;100.00;101619.44;5036480;28;20223;-72
2022/07/09 05:41:23;;;;;;;2.23;2.00;;;;;;;13.47;100.00;101623.72;5046129;28;20218;-72
2022/07/09 05:43:49;;;;;;;2.70;2.20;;;;;;;13.40;100.00;101630.00;5041937;28;20207;-72
2022/07/09 05:46:16;;;;;;;3.87;2.27;;;;;;;13.29;100.00;101627.59;5052806;28;20207;-73
2022/07/09 05:48:42;;;;;;;5.97;2.70;;;;;;;13.15;100.00;101634.88;5045218;28;20552;-73
2022/07/09 05:51:08;;;;;;;2.90;2.20;;;;;;;13.17;100.00;101630.47;5044079;28;20595;-73
2022/07/09 05:53:35;;;;;;;5.73;2.40;;;;;;;13.11;100.00;101631.47;5040297;28;20250;-72
2022/07/09 05:56:03;;;;;;;5.10;2.47;;;;;;;13.07;100.00;101629.81;5021494;28;20258;-72
2022/07/09 05:58:29;;;;;;;2.83;2.33;;;;;;;13.07;100.00;101627.19;5044515;28;20219;-73
2022/07/09 06:00:56;;;;;;;2.90;2.10;;;;;;;12.95;100.00;101630.91;5048244;28;20222;-72
2022/07/09 06:03:22;;;;;;;2.77;2.27;;;;;;;12.87;100.00;101631.09;5041538;28;20209;-73
2022/07/09 06:05:49;;;;;;;4.77;2.93;;;;;;;12.86;100.00;101618.03;5043649;28;20215;-73
2022/07/09 06:08:15;;;;;;;3.47;2.40;;;;;;;12.87;100.00;101620.63;5043834;28;20216;-72
2022/07/09 06:10:42;;;;;;;4.10;2.57;;;;;;;12.94;100.00;101628.31;5052898;28;20590;-72
2022/07/09 06:13:10;;;;;;;4.97;2.90;;;;;;;12.91;100.00;101628.38;5047297;28;20697;-73
2022/07/09 06:15:36;;;;;;;4.17;3.23;;;;;;;13.06;100.00;101628.06;5044270;28;20541;-72
2022/07/09 06:18:03;;;;;;;3.03;2.60;;;;;;;12.98;100.00;101629.97;5049779;28;20203;-72
2022/07/09 06:20:31;;;;;;;3.87;2.10;;;;;;;13.01;100.00;101635.16;5045396;28;20218;-72
2022/07/09 06:22:57;;;;;;;2.90;2.23;;;;;;;12.92;100.00;101638.81;5029531;28;20259;-72
2022/07/09 06:25:23;;;;;;;3.13;2.10;;;;;;;12.90;100.00;101639.75;5044262;28;20206;-73
2022/07/09 06:27:50;;;;;;;5.10;2.10;;;;;;;12.96;100.00;101637.00;5037841;28;20204;-73
2022/07/09 06:30:18;;;;;;;6.07;2.47;;;;;;;12.97;100.00;101631.75;5042121;28;20227;-73
2022/07/09 06:32:44;;;;;;;2.30;2.10;;;;;;;13.03;100.00;101639.50;5043453;28;20211;-72
2022/07/09 06:35:10;;;;;;;13.27;6.67;;;;;;;13.05;100.00;101642.94;5048946;28;20213;-72
2022/07/09 06:37:37;;;;;;;7.93;2.70;;;;;;;13.02;100.00;101647.38;5045764;28;20206;-72
2022/07/09 06:40:04;;;;;;;3.77;2.10;;;;;;;12.92;100.00;101646.69;5047688;28;20228;-73
2022/07/09 06:42:30;;;;;;;2.57;2.10;;;;;;;12.88;100.00;101645.03;5047965;28;20194;-73
2022/07/09 06:45:00;;;;;;;2.63;2.10;;;;;;;12.88;100.00;101639.78;5022131;28;20195;-72
2022/07/09 06:47:27;;;;;;;3.27;2.20;;;;;;;12.95;100.00;101644.00;5045359;28;20196;-72
2022/07/09 06:49:54;;;;;;;3.03;2.00;;;;;;;12.88;100.00;101642.41;5039787;28;20221;-73
2022/07/09 06:52:20;;;;;;;4.83;2.10;;;;;;;12.99;100.00;101640.41;5046294;28;20703;-73
2022/07/09 06:54:46;;;;;;;3.50;2.53;;;;;;;12.96;100.00;101637.00;5037933;28;20668;-73
2022/07/09 06:57:13;;;;;;;3.03;2.10;;;;;;;12.92;100.00;101636.19;5045582;28;20199;-72
2022/07/09 06:59:40;;;;;;;2.43;2.20;;;;;;;13.01;100.00;101640.41;5044429;28;20218;-73
2022/07/09 07:02:07;;;;;;;6.63;3.70;;;;;;;13.01;100.00;101637.78;5049289;28;20673;-72
2022/07/09 07:04:35;;;;;;;4.07;1.90;;;;;;;13.03;100.00;101634.25;5041234;28;20645;-72
2022/07/09 07:07:01;;;;;;;4.17;2.17;;;;;;;13.01;100.00;101629.94;5043203;28;20187;-72
2022/07/09 07:09:28;;;;;;;2.00;1.80;;;;;;;13.10;100.00;101634.97;5045595;28;20219;-72
2022/07/09 07:11:55;;;;;;;4.37;1.97;;;;;;;13.20;100.00;101625.19;5043595;28;20278;-72
2022/07/09 07:14:21;;;;;;;2.60;1.70;;;;;;;13.26;100.00;101625.03;5046354;28;20202;-72
2022/07/09 07:16:48;;;;;;;2.53;1.90;;;;;;;13.26;100.00;101627.66;5039424;28;20364;-72
2022/07/09 07:19:14;;;;;;;4.13;1.93;;;;;;;13.13;100.00;101629.66;5051143;28;20203;-72
2022/07/09 07:21:42;;;;;;;3.00;1.70;;;;;;;13.30;100.00;101625.81;5055232;28;20206;-72
2022/07/09 07:24:08;;;;;;;5.47;1.93;;;;;;;13.46;100.00;101635.13;5046378;28;20553;-72
2022/07/09 07:26:35;;;;;;;4.23;2.03;;;;;;;13.70;100.00;101623.22;5049118;28;20203;-72
2022/07/09 07:29:02;;;;;;;1.93;1.60;;;;;;;13.95;100.00;101618.25;5053017;28;20201;-72
2022/07/09 07:31:28;;;;;;;3.07;2.03;;;;;;;13.93;100.00;101627.94;5048876;28;20589;-72
2022/07/09 07:33:55;;;;;;;2.03;1.60;;;;;;;14.15;100.00;101628.25;5059314;28;20188;-73
2022/07/09 07:36:22;;;;;;;1.60;1.50;;;;;;;14.29;100.00;101619.16;5046815;28;20203;-72
2022/07/09 07:38:49;;;;;;;1.93;1.43;;;;;;;14.38;100.00;101619.78;5043158;28;20211;-72
2022/07/09 07:41:18;;;;;;;1.27;1.17;;;;;;;14.38;100.00;101621.56;5043939;28;20212;-72
2022/07/09 07:43:44;;;;;;;2.53;1.80;;;;;;;14.52;100.00;101622.03;5034213;28;20248;-70
2022/07/09 07:46:11;;;;;;;2.53;1.60;;;;;;;14.81;100.00;101615.19;5045041;28;20205;-70
2022/07/09 07:48:37;;;;;;;4.07;1.57;;;;;;;15.13;100.00;101618.66;5046884;28;20282;-70
2022/07/09 07:51:04;;;;;;;3.57;1.33;;;;;;;15.18;100.00;101627.25;5043668;28;20229;-70
2022/07/09 07:53:31;;;;;;;2.07;1.50;;;;;;;15.46;100.00;101614.16;5037871;28;20215;-70
2022/07/09 07:56:00;;;;;;;1.73;1.40;;;;;;;15.64;100.00;101625.00;5042338;28;20214;-70
2022/07/09 07:58:27;;;;;;;1.97;1.43;;;;;;;15.62;98.40;101635.56;5042700;28;20195;-70
2022/07/09 08:00:53;;;;;;;2.97;1.60;;;;;;;15.55;97.69;101628.78;5042991;28;20289;-70
2022/07/09 08:03:20;;;;;;;1.43;1.10;;;;;;;15.78;98.91;101621.97;5041377;28;20208;-70
2022/07/09 08:05:46;;;;;;;2.33;1.33;;;;;;;15.89;97.41;101618.06;5043293;28;20198;-70
2022/07/09 08:08:13;;;;;;;2.47;1.47;;;;;;;16.05;97.88;101609.66;5044565;28;20199;-70
2022/07/09 08:10:39;;;;;;;1.67;1.30;;;;;;;16.30;98.77;101611.47;5044658;28;20242;-70
2022/07/09 08:13:07;;;;;;;1.57;1.03;;;;;;;16.41;96.00;101614.56;5044015;28;20234;-70
2022/07/09 08:15:33;;;;;;;2.87;1.23;;;;;;;16.52;94.48;101617.72;5044088;28;20195;-70
2022/07/09 08:18:00;;;;;;;1.73;1.10;;;;;;;16.36;92.85;101611.25;5042253;28;20195;-70
2022/07/09 08:20:27;;;;;;;2.17;1.50;;;;;;;16.27;92.96;101622.97;5044110;28;20221;-70
2022/07/09 08:22:53;;;;;;;7.20;1.50;;;;;;;16.04;92.89;101629.88;5036208;28;20192;-70
2022/07/09 08:25:20;;;;;;;2.50;1.40;;;;;;;16.33;95.13;101621.91;5039710;28;20199;-70
2022/07/09 08:27:48;;;;;;;4.13;1.37;;;;;;;16.21;93.65;101616.13;5026078;28;20207;-70
2022/07/09 08:30:16;;;;;;;1.40;1.30;;;;;;;16.28;93.72;101619.41;5039545;28;20578;-70
2022/07/09 08:32:42;;;;;;;1.27;1.17;;;;;;;16.26;93.97;101615.97;5044202;28;20233;-70
2022/07/09 08:35:09;;;;;;;3.30;1.77;;;;;;;16.39;95.72;101612.03;5039372;28;20195;-70
2022/07/09 08:37:36;;;;;;;1.23;1.13;;;;;;;16.51;94.46;101617.75;5024619;28;20199;-70
2022/07/09 08:40:07;;;;;;;1.63;1.50;;;;;;;16.45;94.27;101617.06;5044435;28;20691;-70
2022/07/09 08:42:33;;;;;;;2.10;1.50;;;;;;;16.35;93.59;101620.06;5038528;28;20656;-70
2022/07/09 08:45:00;;;;;;;1.60;1.50;;;;;;;16.31;93.93;101603.53;5045215;28;20206;-70
2022/07/09 08:47:27;;;;;;;2.90;1.63;;;;;;;16.32;95.86;101594.69;5041891;28;20568;-70
2022/07/09 08:49:57;;;;;;;1.97;1.30;;;;;;;16.45;95.80;101585.47;5046724;28;20215;-70
2022/07/09 08:52:24;;;;;;;2.40;1.63;;;;;;;16.51;95.62;101592.28;5044100;28;20215;-70
2022/07/09 08:54:53;;;;;;;3.87;1.50;;;;;;;16.66;94.72;101588.25;5039096;28;20208;-70
2022/07/09 08:57:19;;;;;;;2.10;1.57;;;;;;;16.76;93.63;101584.38;5035963;28;20415;-70
2022/07/09 08:59:45;;;;;;;2.57;1.67;;;;;;;16.95;92.97;101592.47;5038838;28;20230;-70
2022/07/09 09:02:13;;;;;;;3.27;1.70;;;;;;;16.97;90.72;101590.66;5042849;28;20206;-70
2022/07/09 09:04:41;;;;;;;3.17;1.60;;;;;;;17.18;91.60;101582.84;5039914;28;20684;-70
2022/07/09 09:07:15;;;;;;;1.93;1.63;;;;;;;17.37;89.59;101590.88;5041254;28;20191;-70
2022/07/09 09:09:42;;;;;;;3.77;1.50;;;;;;;17.69;89.38;101589.59;5040646;28;20824;-70
2022/07/09 09:12:09;;;;;;;2.90;1.40;;;;;;;18.04;85.56;101599.66;5040945;28;20206;-70
2022/07/09 09:14:35;;;;;;;2.00;1.40;;;;;;;18.41;86.28;101600.72;5046282;28;20210;-70
2022/07/09 09:17:05;;;;;;;1.40;1.30;;;;;;;18.31;82.19;101613.44;5045589;28;20210;-70
2022/07/09 09:19:31;;;;;;;2.67;1.60;;;;;;;18.43;81.07;101605.00;5041493;28;20226;-70
2022/07/09 09:21:59;;;;;;;2.00;1.40;;;;;;;18.48;79.95;101607.44;5044409;28;20191;-70
2022/07/09 09:24:28;;;;;;;1.20;1.10;;;;;;;18.23;80.93;101602.38;5043885;28;20203;-70
2022/07/09 09:26:57;;;;;;;2.13;1.50;;;;;;;18.17;81.47;101600.88;5038364;28;20648;-70
2022/07/09 09:29:23;;;;;;;4.00;1.40;;;;;;;18.12;82.57;101597.56;5047025;28;20297;-70
2022/07/09 09:31:50;;;;;;;3.43;1.40;;;;;;;18.09;83.51;101592.41;5045376;28;20206;-70
2022/07/09 09:34:18;;;;;;;2.33;1.50;;;;;;;18.01;82.59;101605.03;5039957;28;20215;-70
2022/07/09 09:36:46;;;;;;;3.17;1.90;;;;;;;17.89;81.28;101599.38;5042774;28;20192;-70
2022/07/09 09:39:16;;;;;;;2.27;1.10;;;;;;;17.89;83.49;101594.09;5043214;28;20207;-70
2022/07/09 09:41:45;;;;;;;1.70;1.10;;;;;;;17.78;82.68;101583.06;5042945;28;20203;-71
2022/07/09 09:44:14;;;;;;;1.20;1.10;;;;;;;17.71;82.41;101592.16;5043349;28;20188;-70
2022/07/09 09:46:41;;;;;;;2.00;1.43;;;;;;;17.82;83.88;101586.44;5046929;28;20671;-71
2022/07/09 09:49:10;;;;;;;1.90;1.40;;;;;;;17.70;82.27;101587.84;5039542;28;20204;-70
2022/07/09 09:51:42;;;;;;;1.27;1.13;;;;;;;17.60;83.71;101588.19;5044608;28;20214;-70
2022/07/09 09:54:09;;;;;;;1.63;1.50;;;;;;;17.73;86.52;101577.13;5046897;28;20218;-74
2022/07/09 09:56:38;;;;;;;1.47;1.37;;;;;;;17.89;84.48;101585.34;5039991;28;20199;-71
2022/07/09 09:59:04;;;;;;;2.13;1.57;;;;;;;17.92;83.35;101586.06;5046127;28;20196;-72
2022/07/09 10:01:31;;;;;;;2.63;1.27;;;;;;;18.14;83.91;101578.09;5045969;28;20192;-71
2022/07/09 10:03:58;;;;;;;2.33;1.33;;;;;;;18.24;81.94;101575.03;5043291;28;20664;-72
2022/07/09 10:06:25;;;;;;;3.10;1.30;;;;;;;18.48;79.61;101570.47;5044150;28;20206;-71
2022/07/09 10:08:52;;;;;;;2.07;1.07;;;;;;;18.92;81.14;101562.34;5046178;28;20198;-71
2022/07/09 10:11:18;;;;;;;1.93;1.37;;;;;;;19.30;80.02;101551.75;5046946;28;20219;-73
2022/07/09 10:13:54;;;;;;;2.43;1.57;;;;;;;19.41;76.88;101552.09;5041956;28;20204;-72
2022/07/09 10:16:33;;;;;;;2.60;1.33;;;;;;;19.56;76.78;101552.25;5042146;28;20553;-71
2022/07/09 10:18:59;;;;;;;1.63;1.40;;;;;;;19.78;76.42;101552.09;5047275;28;20553;-71
2022/07/09 10:21:36;;;;;;;1.10;1.00;;;;;;;19.72;73.23;101553.25;5043598;28;20211;-71
2022/07/09 10:24:03;;;;;;;1.50;1.13;;;;;;;19.80;74.24;101552.88;5038693;28;20218;-71
2022/07/09 10:26:46;;;;;;;3.90;1.20;;;;;;;19.58;71.84;101550.44;5038457;28;20266;-72
2022/07/09 10:29:22;;;;;;;1.83;1.10;;;;;;;19.54;73.20;101541.78;5044294;28;20198;-72
2022/07/09 10:31:49;;;;;;;2.00;1.30;;;;;;;19.38;73.36;101546.09;5050168;28;20202;-72
2022/07/09 10:34:32;;;;;;;1.20;1.07;;;;;;;19.39;75.75;101545.19;5040765;28;20238;-72
2022/07/09 10:36:58;;;;;;;2.67;1.47;;;;;;;19.38;75.90;101538.16;5044868;28;20561;-71
2022/07/09 10:39:25;;;;;;;1.27;1.00;;;;;;;19.44;74.48;101540.53;5039327;28;20222;-72
2022/07/09 10:41:59;;;;;;;2.87;1.07;;;;;;;19.58;75.49;101534.56;5053273;28;20202;-73
2022/07/09 10:44:35;;;;;;;2.37;1.13;;;;;;;19.70;72.97;101541.88;5045509;28;20217;-73
2022/07/09 10:47:01;;;;;;;1.17;1.07;;;;;;;19.70;72.11;101544.53;5047162;28;20202;-73
2022/07/09 10:49:28;;;;;;;1.23;0.80;;;;;;;19.60;71.47;101537.97;5025180;28;20596;-73
2022/07/09 10:51:58;;;;;;;1.00;0.90;;;;;;;19.55;73.49;101545.28;5044487;28;20259;-73
2022/07/09 10:54:25;;;;;;;1.43;0.93;;;;;;;19.58;72.57;101545.13;5041920;28;20220;-73
2022/07/09 10:56:53;;;;;;;1.27;0.93;;;;;;;19.56;70.35;101536.41;5040963;28;20566;-73
2022/07/09 10:59:20;;;;;;;1.23;1.00;;;;;;;19.63;72.39;101536.03;5044469;28;20637;-73
2022/07/09 11:01:48;;;;;;;1.43;1.00;;;;;;;19.62;71.95;101541.41;5044438;28;20206;-73
2022/07/09 11:04:25;;;;;;;2.03;1.03;;;;;;;19.40;72.56;101536.28;5048723;28;22131;-73
2022/07/09 11:06:51;;;;;;;1.23;0.90;;;;;;;19.49;71.83;101539.38;5040912;28;20560;-74
2022/07/09 11:09:17;;;;;;;1.10;1.00;;;;;;;19.55;72.90;101535.56;5037371;28;20207;-73
2022/07/09 11:11:45;;;;;;;8.70;0.80;;;;;;;19.45;70.63;101535.16;5037833;28;20544;-74
2022/07/09 11:14:12;;;;;;;0.93;0.90;;;;;;;19.53;72.63;101532.13;5038086;28;20216;-73
2022/07/09 11:16:38;;;;;;;2.20;0.90;;;;;;;19.50;71.20;101529.63;5035311;28;20283;-73
2022/07/09 11:19:14;;;;;;;1.40;0.70;;;;;;;19.40;72.72;101526.59;5039648;28;20211;-74